createdAt,value
2022-12-12T07:17:52.134Z,85.08
2022-12-12T07:37:54.135Z,83.15
2022-12-12T07:57:58.816Z,81.52
2022-12-12T08:18:03.834Z,79.69
2022-12-12T08:38:05.591Z,80.33
2022-12-12T08:58:07.394Z,80.68
2022-12-12T09:18:10.899Z,79.24
2022-12-12T09:38:15.312Z,79.33
2022-12-12T09:58:17.034Z,79.66
2022-12-12T10:18:18.787Z,74.87
2022-12-12T10:38:22.883Z,74.60
2022-12-12T10:58:24.629Z,71.44
2022-12-12T11:18:26.314Z,73.94
2022-12-12T11:38:27.969Z,80.21
2022-12-12T11:58:30.116Z,81.36
2022-12-12T12:18:31.819Z,78.48
2022-12-12T12:58:53.596Z,80.83
2022-12-12T13:18:55.151Z,83.01
2022-12-12T13:38:59.032Z,83.85
2022-12-12T13:59:00.575Z,94.45
2022-12-12T14:19:02.129Z,100.00
2022-12-12T14:39:03.748Z,100.00
2022-12-12T14:59:05.391Z,100.00
2022-12-12T15:19:07.167Z,100.00
2022-12-12T15:39:08.707Z,100.00
2022-12-12T15:59:10.423Z,100.00
2022-12-12T16:19:11.896Z,100.00
2022-12-12T16:39:13.620Z,100.00
2022-12-12T16:59:15.067Z,100.00
2022-12-12T17:19:17.252Z,100.00
2022-12-12T17:39:18.764Z,100.00
2022-12-12T17:59:23.043Z,100.00
2022-12-12T18:19:25.159Z,100.00
2022-12-12T18:39:45.511Z,100.00
2022-12-12T19:00:05.988Z,100.00
2022-12-12T19:20:26.220Z,100.00
2022-12-12T20:01:29.267Z,100.00
2022-12-12T20:22:00.884Z,100.00
2022-12-12T20:42:06.609Z,100.00
2022-12-12T21:02:08.282Z,100.00
2022-12-12T21:22:09.976Z,100.00
2022-12-12T21:42:11.749Z,100.00
2022-12-12T22:02:13.389Z,98.92
2022-12-12T22:22:15.882Z,99.46
2022-12-12T22:42:17.399Z,96.67
2022-12-12T23:02:24.914Z,92.25
2022-12-12T23:22:27.091Z,92.98
2022-12-12T23:42:28.614Z,90.92
